Time;durP1;ratioP1;P1;durP2;ratioP2;P2;SDS_P1;SDS_P2;PMS_P1;PMS_P2;Temp;Humidity;BMP_temperature;BMP_pressure;BME280_temperature;BME280_humidity;BME280_pressure;Samples;Min_cycle;Max_cycle;Signal;HPM_P1;HPM_P2
2021/07/15 00:02:05;;;;;;;22.88;14.80;;;18.70;99.90;;;17.56;100.00;101608.47;5022087;28;20050;-76
2021/07/15 00:04:32;;;;;;;24.85;15.02;;;18.60;99.90;;;17.56;100.00;101690.16;5025739;28;20389;-76
2021/07/15 00:06:59;;;;;;;25.35;15.70;;;18.60;99.90;;;17.52;100.00;101688.63;5020385;28;20033;-76
2021/07/15 00:09:25;;;;;;;20.52;15.73;;;18.60;99.90;;;17.50;100.00;101704.69;5025014;28;20021;-75
2021/07/15 00:11:51;;;;;;;31.08;16.25;;;18.60;99.90;;;17.57;100.00;101750.44;5022078;28;20021;-76
2021/07/15 00:14:22;;;;;;;30.95;15.95;;;18.60;99.90;;;17.60;100.00;101776.88;5024729;28;20064;-76
2021/07/15 00:16:56;;;;;;;29.25;16.95;;;18.70;99.90;;;17.60;100.00;101760.91;5022528;28;20025;-75
2021/07/15 00:19:26;;;;;;;24.88;15.85;;;18.70;99.90;;;17.58;100.00;101816.94;5029369;28;20029;-76
2021/07/15 00:21:54;;;;;;;20.80;14.65;;;18.70;99.90;;;17.60;100.00;101752.91;4999820;28;20080;-76
2021/07/15 00:24:20;;;;;;;21.33;14.38;;;18.70;99.90;;;17.62;100.00;101722.59;5019962;28;20029;-76
2021/07/15 00:26:48;;;;;;;19.67;13.65;;;18.70;99.90;;;17.56;100.00;101738.09;5024777;28;20113;-76
2021/07/15 00:29:14;;;;;;;17.83;12.40;;;18.60;99.90;;;17.37;100.00;101725.03;5014748;28;20028;-76
2021/07/15 00:31:40;;;;;;;16.33;7.95;;;18.30;99.90;;;17.04;100.00;101675.50;5020364;28;20025;-76
2021/07/15 00:34:07;;;;;;;12.25;8.32;;;18.10;99.90;;;16.90;100.00;101644.38;5040822;28;20029;-76
2021/07/15 00:36:33;;;;;;;15.60;9.30;;;18.10;99.90;;;16.88;100.00;101630.31;5021726;28;20423;-76
2021/07/15 00:39:00;;;;;;;13.65;10.10;;;18.10;99.90;;;16.85;100.00;101619.84;5005824;28;20036;-76
2021/07/15 00:41:26;;;;;;;21.48;11.10;;;18.00;99.90;;;16.78;100.00;101616.66;5023020;28;20037;-76
2021/07/15 00:43:52;;;;;;;19.33;11.43;;;18.00;99.90;;;16.77;100.00;101588.34;5022998;28;20022;-75
2021/07/15 00:46:18;;;;;;;17.55;11.07;;;17.90;99.90;;;16.69;100.00;101557.84;5023803;28;20037;-75
2021/07/15 00:48:43;;;;;;;18.25;12.27;;;17.90;99.90;;;16.69;100.00;101544.53;5014381;28;20029;-76
2021/07/15 00:51:10;;;;;;;18.60;12.65;;;17.80;99.90;;;16.69;100.00;101533.91;5020512;28;20079;-76
2021/07/15 00:53:37;;;;;;;19.45;11.93;;;17.80;99.90;;;16.67;100.00;101533.13;5022486;28;20076;-76
2021/07/15 00:56:03;;;;;;;20.13;12.90;;;17.80;99.90;;;16.63;100.00;101528.94;5021601;28;20126;-76
2021/07/15 00:58:30;;;;;;;20.88;12.43;;;17.80;99.90;;;16.63;100.00;101524.50;5020127;28;20040;-76
2021/07/15 01:00:57;;;;;;;18.73;12.50;;;17.80;99.90;;;16.66;100.00;101512.81;5027452;28;20045;-75
2021/07/15 01:03:23;;;;;;;22.08;13.20;;;17.80;99.90;;;16.67;100.00;101522.50;5015691;28;20027;-76
2021/07/15 01:05:54;;;;;;;25.25;13.95;;;17.80;99.90;;;16.66;100.00;101497.72;5023313;28;20056;-76
2021/07/15 01:08:21;;;;;;;19.33;13.10;;;17.80;99.90;;;16.65;100.00;101479.19;5022553;28;20033;-76
2021/07/15 01:11:03;;;;;;;23.38;13.18;;;17.80;99.90;;;16.59;100.00;101496.38;5020343;28;20521;-75
2021/07/15 01:13:46;;;;;;;26.77;12.70;;;17.70;99.90;;;16.56;100.00;101561.19;5029826;28;20109;-76
2021/07/15 01:16:47;;;;;;;20.08;13.10;;;17.80;99.90;;;16.63;100.00;101577.69;5025272;28;20029;-75
2021/07/15 01:19:37;;;;;;;24.83;12.30;;;17.70;99.90;;;16.63;100.00;101608.72;5037860;28;20049;-76
2021/07/15 01:22:47;;;;;;;23.95;12.80;;;17.80;99.90;;;16.67;100.00;101631.53;5018602;28;20055;-76
2021/07/15 01:25:27;;;;;;;18.27;12.23;;;17.80;99.90;;;16.71;100.00;101660.50;5020319;28;20036;-76
2021/07/15 01:28:29;;;;;;;23.08;13.98;;;17.80;99.90;;;16.65;100.00;101650.25;5021881;28;20047;-76
2021/07/15 01:31:01;;;;;;;24.92;13.77;;;17.80;99.90;;;16.63;100.00;101614.91;4990126;28;20033;-75
2021/07/15 01:33:36;;;;;;;25.05;15.32;;;17.80;99.90;;;16.68;100.00;101630.59;5020379;28;20388;-76
2021/07/15 01:36:13;;;;;;;26.40;16.25;;;17.80;99.90;;;16.75;100.00;101648.75;5021841;28;20032;-76
2021/07/15 01:38:49;;;;;;;26.38;18.15;;;17.90;99.90;;;16.84;100.00;101638.56;5020545;28;20029;-76
2021/07/15 01:41:29;;;;;;;29.02;17.60;;;17.90;99.90;;;16.85;100.00;101640.28;5001868;28;20055;-76
2021/07/15 01:44:04;;;;;;;28.08;18.65;;;18.00;99.90;;;16.87;100.00;101643.69;5037087;28;20087;-76
2021/07/15 01:46:32;;;;;;;29.38;18.13;;;18.00;99.90;;;16.89;100.00;101618.72;5023718;28;20030;-76
2021/07/15 01:48:58;;;;;;;29.67;16.70;;;17.90;99.90;;;16.82;100.00;101646.63;5012877;28;20496;-76
2021/07/15 01:51:25;;;;;;;33.45;18.38;;;17.90;99.90;;;16.78;100.00;101629.97;5021699;28;20033;-75
2021/07/15 01:53:53;;;;;;;26.40;16.67;;;18.40;99.90;;;16.78;100.00;101639.72;5013136;28;20091;-76
2021/07/15 01:56:19;;;;;;;28.55;16.10;;;17.90;99.90;;;16.77;100.00;101654.84;5005732;28;20037;-76
2021/07/15 01:58:48;;;;;;;35.83;16.77;;;17.90;99.90;;;16.77;100.00;101670.78;5020393;28;20045;-76
2021/07/15 02:01:16;;;;;;;28.45;17.98;;;17.90;99.90;;;16.75;100.00;101654.06;5014254;28;20033;-76
2021/07/15 02:03:50;;;;;;;32.53;17.67;;;17.80;99.90;;;16.72;100.00;101680.84;5020011;28;20025;-76
2021/07/15 02:06:18;;;;;;;39.58;17.98;;;17.80;99.90;;;16.69;100.00;101702.28;5020090;28;20128;-75
2021/07/15 02:08:47;;;;;;;38.15;18.73;;;17.80;99.90;;;16.68;100.00;101703.25;5022515;28;20021;-76
2021/07/15 02:11:15;;;;;;;32.40;18.30;;;17.70;99.90;;;16.69;100.00;101704.09;5020782;28;20029;-76
2021/07/15 02:13:44;;;;;;;52.30;17.73;;;17.70;99.90;;;16.64;100.00;101698.19;5035575;28;20108;-76
2021/07/15 02:16:10;;;;;;;41.15;17.60;;;17.70;99.90;;;16.59;100.00;101661.22;5022161;28;20026;-76
2021/07/15 02:18:39;;;;;;;44.13;19.55;;;17.60;99.90;;;16.55;100.00;101681.81;5020003;28;20099;-76
2021/07/15 02:21:05;;;;;;;68.30;18.63;;;17.70;99.90;;;16.56;100.00;101662.22;5019829;28;20038;-76
2021/07/15 02:23:32;;;;;;;45.20;18.95;;;17.60;99.90;;;16.57;100.00;101666.63;5025951;28;20044;-75
2021/07/15 02:25:59;;;;;;;51.55;18.77;;;17.60;99.90;;;16.56;100.00;101687.97;5012128;28;20084;-76
2021/07/15 02:28:29;;;;;;;40.30;18.77;;;17.70;99.90;;;16.57;100.00;101735.75;5019247;28;20504;-76
2021/07/15 02:31:12;;;;;;;35.10;17.45;;;17.70;99.90;;;16.62;100.00;101852.47;5021848;28;20077;-76
2021/07/15 02:33:49;;;;;;;43.35;17.60;;;17.80;99.90;;;16.62;100.00;101881.72;5021198;28;20033;-76
2021/07/15 02:36:18;;;;;;;49.95;18.13;;;17.70;99.90;;;16.59;100.00;102704.47;5021376;28;20022;-76
2021/07/15 02:38:47;;;;;;;37.85;18.33;;;17.70;99.90;;;16.63;100.00;103938.56;5036669;28;20420;-76
2021/07/15 02:41:13;;;;;;;40.13;17.92;;;17.70;99.90;;;16.59;100.00;103110.53;5019387;28;20060;-76
2021/07/15 02:43:39;;;;;;;42.25;17.40;;;17.60;99.90;;;16.54;100.00;102782.69;5020302;28;20034;-76
2021/07/15 02:46:05;;;;;;;49.78;17.45;;;17.60;99.90;;;16.52;100.00;102660.44;5019776;28;20021;-76
2021/07/15 02:48:31;;;;;;;42.67;17.90;;;17.60;99.90;;;16.49;100.00;102421.25;5019173;28;20076;-75
2021/07/15 02:50:57;;;;;;;61.10;17.38;;;17.50;99.90;;;16.47;100.00;102422.25;5020432;28;20053;-76
2021/07/15 02:53:23;;;;;;;44.65;18.42;;;17.50;99.90;;;16.42;100.00;102329.41;5002008;28;20037;-76
2021/07/15 02:56:17;;;;;;;43.13;17.38;;;17.40;99.90;;;16.23;100.00;102185.00;5021458;28;20507;-76
2021/07/15 02:59:33;;;;;;;26.30;15.30;;;17.30;99.90;;;15.97;100.00;102187.06;5001444;28;20441;-76
2021/07/15 03:02:19;;;;;;;41.17;14.70;;;17.10;99.90;;;15.99;100.00;102118.81;5023360;28;20501;-76
2021/07/15 03:04:59;;;;;;;41.28;15.45;;;17.20;99.90;;;16.04;100.00;102015.81;5039440;28;20127;-76
2021/07/15 03:07:27;;;;;;;33.72;16.10;;;17.20;99.90;;;16.04;100.00;102028.25;5010390;28;20033;-76
2021/07/15 03:09:55;;;;;;;27.98;14.65;;;17.20;99.90;;;16.03;100.00;102082.34;5021531;28;20120;-76
2021/07/15 03:12:24;;;;;;;37.22;14.73;;;17.20;99.90;;;16.03;100.00;102184.16;5021251;28;20056;-76
2021/07/15 03:14:55;;;;;;;43.15;15.65;;;17.20;99.90;;;16.04;100.00;102191.16;5019723;28;20071;-76
2021/07/15 03:17:37;;;;;;;29.27;15.63;;;17.20;99.90;;;16.07;100.00;102151.19;5019669;28;20051;-76
2021/07/15 03:20:14;;;;;;;38.50;16.33;;;17.20;99.90;;;16.07;100.00;102201.66;5043401;28;20132;-76
2021/07/15 03:22:44;;;;;;;37.22;16.83;;;17.30;99.90;;;16.11;100.00;102197.06;5011054;28;20029;-76
2021/07/15 03:25:15;;;;;;;32.78;16.23;;;17.30;99.90;;;16.17;100.00;102256.09;5018191;28;20086;-76
2021/07/15 03:27:46;;;;;;;38.60;16.98;;;17.40;99.90;;;16.25;100.00;102268.19;5020779;28;21034;-76
2021/07/15 03:30:15;;;;;;;35.92;17.50;;;17.50;99.90;;;16.30;100.00;102280.31;5018164;28;20477;-76
2021/07/15 03:32:44;;;;;;;29.00;16.70;;;17.50;99.90;;;16.34;100.00;102259.78;5019947;28;20044;-76
2021/07/15 03:35:13;;;;;;;32.40;17.38;;;17.60;99.90;;;16.45;100.00;102377.09;5020367;28;20022;-76
2021/07/15 03:37:44;;;;;;;30.63;17.15;;;17.60;99.90;;;16.53;100.00;102356.34;5010443;28;20025;-76
2021/07/15 03:40:15;;;;;;;37.15;17.08;;;17.70;99.90;;;16.61;100.00;102402.09;5026049;28;21991;-76
2021/07/15 03:42:42;;;;;;;42.97;16.60;;;17.70;99.90;;;16.55;100.00;102414.81;5019927;28;20112;-76
2021/07/15 03:45:16;;;;;;;33.88;15.40;;;17.80;99.90;;;16.65;100.00;102444.47;5036388;28;20029;-76
2021/07/15 03:47:54;;;;;;;26.50;14.82;;;17.90;99.90;;;16.75;100.00;102481.25;5019384;28;20037;-76
2021/07/15 03:50:31;;;;;;;34.65;15.63;;;17.90;99.90;;;16.78;100.00;102449.19;5021280;28;20033;-75
2021/07/15 03:53:02;;;;;;;43.90;17.40;;;17.90;99.90;;;16.83;100.00;102490.72;5036239;28;20034;-76
2021/07/15 03:55:31;;;;;;;32.25;18.42;;;18.00;99.90;;;17.03;100.00;102474.69;5019368;28;20374;-76
2021/07/15 03:58:05;;;;;;;32.10;17.58;;;18.20;99.90;;;17.20;100.00;102488.09;5019402;28;20026;-76
2021/07/15 04:00:32;;;;;;;37.95;19.88;;;18.30;99.90;;;17.25;100.00;102589.03;5022378;28;20037;-76
2021/07/15 04:03:02;;;;;;;37.13;18.75;;;18.30;99.90;;;17.31;100.00;102587.91;5023342;28;20026;-76
2021/07/15 04:05:30;;;;;;;31.85;18.40;;;18.40;99.90;;;17.35;100.00;102609.00;5023735;28;20033;-76
2021/07/15 04:08:00;;;;;;;31.33;16.85;;;18.50;99.90;;;17.39;100.00;102591.94;5013011;28;20048;-76
2021/07/15 04:10:30;;;;;;;35.20;16.92;;;18.50;99.90;;;17.49;100.00;102492.97;5005386;28;20025;-76
2021/07/15 04:12:59;;;;;;;28.15;17.33;;;18.60;99.90;;;17.60;100.00;102429.41;5025228;28;20037;-76
2021/07/15 04:15:51;;;;;;;32.17;15.43;;;18.60;99.90;;;17.58;100.00;102471.22;5009849;28;20083;-76
2021/07/15 04:18:19;;;;;;;33.67;15.70;;;18.60;99.90;;;17.70;100.00;102531.91;5000331;28;20073;-76
2021/07/15 04:20:46;;;;;;;29.75;15.52;;;18.80;99.90;;;17.83;100.00;102570.38;5023654;28;20037;-75
2021/07/15 04:23:14;;;;;;;30.38;15.30;;;19.10;99.90;;;18.17;100.00;102582.06;5024648;28;20030;-76
2021/07/15 04:25:43;;;;;;;28.98;15.20;;;19.50;99.90;;;18.68;100.00;102584.84;5022835;28;20021;-76
2021/07/15 04:28:10;;;;;;;26.85;14.13;;;20.00;99.90;;;19.08;100.00;102614.84;5006451;28;20071;-76
2021/07/15 04:30:36;;;;;;;24.60;12.85;;;20.20;99.90;;;19.16;100.00;102537.00;5038599;28;20435;-76
2021/07/15 04:33:08;;;;;;;24.25;12.80;;;20.20;99.90;;;19.13;100.00;102604.78;5023853;28;20033;-76
2021/07/15 04:35:36;;;;;;;20.63;12.30;;;20.30;99.90;;;19.18;100.00;102545.78;5021734;28;20049;-76
2021/07/15 04:38:04;;;;;;;26.90;11.95;;;20.40;99.90;;;19.16;100.00;102513.00;5021408;28;20128;-76
2021/07/15 04:40:32;;;;;;;25.05;11.73;;;20.20;99.90;;;18.93;100.00;102491.06;5022120;28;20060;-76
2021/07/15 04:43:06;;;;;;;29.25;12.40;;;20.10;99.90;;;18.82;100.00;102451.59;5013991;28;20041;-76
2021/07/15 04:45:36;;;;;;;24.20;12.23;;;19.80;99.90;;;18.62;100.00;102449.97;5005310;28;20036;-76
2021/07/15 04:48:03;;;;;;;19.13;12.00;;;19.70;99.90;;;18.55;100.00;102429.03;5023201;28;20037;-76
2021/07/15 04:50:33;;;;;;;29.08;12.35;;;19.70;99.90;;;18.62;100.00;102438.44;5020605;28;20105;-76
2021/07/15 04:53:09;;;;;;;20.65;12.85;;;19.80;99.90;;;18.82;100.00;102440.91;5014495;28;20027;-76
2021/07/15 04:55:36;;;;;;;22.52;11.68;;;20.30;99.90;;;19.30;100.00;102469.47;5021063;28;20044;-76
2021/07/15 04:58:05;;;;;;;26.73;11.35;;;20.70;99.90;;;19.66;100.00;102463.88;5016762;28;20025;-76
2021/07/15 05:00:32;;;;;;;34.75;11.35;;;20.90;99.90;;;19.72;100.00;102468.00;5022806;28;20417;-76
2021/07/15 05:03:31;;;;;;;19.80;10.80;;;20.90;99.90;;;19.78;100.00;102805.28;5029199;28;20108;-76
2021/07/15 05:06:01;;;;;;;21.02;10.65;;;21.30;99.90;;;20.24;100.00;103682.97;5036009;28;20036;-76
2021/07/15 05:08:29;;;;;;;18.75;10.43;;;21.70;99.90;;;20.77;97.29;103356.81;5025794;28;20029;-76
2021/07/15 05:10:56;;;;;;;15.07;9.43;;;21.90;99.90;;;20.85;95.42;103339.44;5021974;28;20032;-76
2021/07/15 05:13:22;;;;;;;11.85;8.90;;;22.00;99.90;;;20.98;94.58;103655.78;5021775;28;20021;-76
2021/07/15 05:15:50;;;;;;;17.25;9.02;;;21.60;99.90;;;20.52;96.37;103333.00;5038904;28;20032;-76
2021/07/15 05:18:16;;;;;;;16.27;9.45;;;21.40;99.90;;;20.42;97.43;102958.81;5031943;28;20507;-76
2021/07/15 05:20:43;;;;;;;26.63;9.45;;;21.90;99.90;;;21.07;97.11;102861.59;5050591;28;20488;-76
2021/07/15 05:23:11;;;;;;;15.13;8.23;;;22.40;99.90;;;21.68;93.20;102986.75;5029583;28;20033;-76
2021/07/15 05:25:37;;;;;;;18.85;7.93;;;22.80;99.90;;;21.87;90.61;102884.59;5019905;28;20029;-76
2021/07/15 05:28:04;;;;;;;12.52;7.65;;;23.10;99.90;;;22.15;89.19;102670.97;5038964;28;20040;-76
2021/07/15 05:30:31;;;;;;;12.13;7.20;;;23.70;99.90;;;22.53;89.16;103157.06;5038868;28;20087;-76
2021/07/15 05:32:58;;;;;;;12.35;6.80;;;24.20;99.90;;;22.77;87.32;103042.91;5012856;28;20473;-76
2021/07/15 05:35:24;;;;;;;19.27;6.60;;;24.30;99.90;;;22.69;86.09;102885.78;5021586;28;20025;-76
2021/07/15 05:37:51;;;;;;;15.23;7.07;;;23.90;99.90;;;22.28;87.25;102628.13;5022107;28;20373;-76
2021/07/15 05:40:17;;;;;;;12.95;6.82;;;23.60;99.90;;;21.83;89.68;102534.44;5020947;28;20037;-76
2021/07/15 05:42:43;;;;;;;14.80;7.10;;;23.30;99.90;;;21.36;92.12;102482.13;5038169;28;20028;-76
2021/07/15 05:45:09;;;;;;;15.00;7.25;;;22.90;99.90;;;21.02;93.74;102467.34;5020833;28;20013;-75
2021/07/15 05:47:36;;;;;;;9.70;7.30;;;22.50;99.90;;;20.63;96.06;102418.03;5012841;28;20045;-76
2021/07/15 05:50:04;;;;;;;14.73;7.32;;;22.40;99.90;;;20.98;97.15;102493.44;5022090;28;20032;-76
2021/07/15 05:52:30;;;;;;;15.45;7.22;;;23.10;99.90;;;21.93;93.38;102558.84;5029559;28;20393;-76
2021/07/15 05:54:57;;;;;;;10.10;6.65;;;23.80;99.90;;;22.49;89.99;102521.16;5036600;28;20030;-76
2021/07/15 05:57:25;;;;;;;9.73;6.00;;;24.70;99.90;;;23.45;85.47;102586.03;5036461;28;20096;-76
2021/07/15 05:59:51;;;;;;;8.48;5.47;;;25.60;99.90;;;24.00;80.41;102594.63;5038316;28;20052;-76
2021/07/15 06:02:17;;;;;;;6.38;5.03;;;26.10;99.90;;;24.20;78.56;102557.28;5035932;28;20037;-76
2021/07/15 06:04:44;;;;;;;7.65;4.47;;;26.10;99.90;;;23.83;79.19;104424.50;5023391;28;20056;-76
2021/07/15 06:07:10;;;;;;;7.32;4.22;;;25.80;99.90;;;23.54;81.75;104978.97;5036274;28;20029;-76
2021/07/15 06:09:36;;;;;;;10.80;4.25;;;25.80;99.90;;;23.67;80.08;103940.03;5020179;28;20050;-76
2021/07/15 06:12:02;;;;;;;4.65;3.70;;;25.50;99.90;;;23.47;79.48;103498.22;5037371;28;20373;-76
2021/07/15 06:14:29;;;;;;;7.00;3.95;;;25.50;99.90;;;23.62;79.05;103323.47;5036178;28;20036;-76
2021/07/15 06:16:55;;;;;;;5.22;3.67;;;25.40;99.90;;;23.39;79.61;103112.50;5035227;28;20043;-76
2021/07/15 06:19:21;;;;;;;5.80;3.47;;;24.90;99.90;;;22.82;83.03;103006.72;5038511;28;20384;-76
2021/07/15 06:21:47;;;;;;;8.85;4.15;;;24.60;99.90;;;22.94;83.09;102807.19;5040216;28;20071;-76
2021/07/15 06:24:13;;;;;;;10.52;3.78;;;25.20;99.90;;;23.80;79.71;102684.88;5042284;28;20037;-76
2021/07/15 06:26:39;;;;;;;7.63;3.60;;;25.90;99.90;;;24.95;76.38;102723.94;5021641;28;20104;-76
2021/07/15 06:29:05;;;;;;;9.32;3.33;;;26.80;99.90;;;25.61;71.99;102664.03;5018919;28;20049;-76
2021/07/15 06:31:32;;;;;;;5.50;3.80;;;27.80;99.90;;;26.18;68.58;102663.84;5038170;28;20386;-76
2021/07/15 06:33:59;;;;;;;7.72;3.60;;;27.80;99.90;;;26.10;71.37;102662.78;5037766;28;20067;-76
2021/07/15 06:36:27;;;;;;;4.03;3.03;;;28.00;99.90;;;26.28;68.24;102646.88;5035264;28;20059;-76
2021/07/15 06:38:55;;;;;;;7.63;3.88;;;27.80;99.90;;;25.89;71.85;102570.94;5020479;28;20037;-76
2021/07/15 06:41:21;;;;;;;8.68;3.97;;;27.80;99.90;;;25.90;71.27;102543.81;5035669;28;20040;-76
2021/07/15 06:43:48;;;;;;;5.30;3.67;;;27.90;99.90;;;26.18;69.59;102816.88;5037884;28;20068;-76
2021/07/15 06:46:14;;;;;;;7.80;3.58;;;28.00;99.90;;;26.09;70.41;102748.31;5037146;28;20661;-76
2021/07/15 06:48:40;;;;;;;8.90;3.58;;;28.40;99.90;;;27.17;67.19;102540.13;5033885;28;20028;-76
2021/07/15 06:51:08;;;;;;;9.70;4.13;;;29.10;99.90;;;27.36;64.94;102552.00;5038160;28;20033;-76
2021/07/15 06:53:35;;;;;;;7.10;3.33;;;29.70;99.90;;;28.37;61.91;102625.84;5037014;28;20515;-75
2021/07/15 06:56:01;;;;;;;9.95;3.40;;;30.20;99.90;;;28.62;62.09;102560.25;5019163;28;20504;-74
2021/07/15 06:58:28;;;;;;;8.20;3.38;;;30.90;99.90;;;29.43;59.65;102591.38;5036686;28;20028;-74
2021/07/15 07:00:57;;;;;;;6.68;3.33;;;31.10;99.90;;;29.02;59.84;102499.47;5020271;28;20037;-74
2021/07/15 07:03:26;;;;;;;7.40;2.72;;;31.10;99.90;;;29.64;57.57;102539.56;5026911;28;20016;-74
2021/07/15 07:05:53;;;;;;;8.13;3.40;;;31.40;99.90;;;29.52;58.36;102506.34;5020922;28;20024;-74
2021/07/15 07:08:19;;;;;;;5.18;3.30;;;31.30;99.90;;;28.63;59.38;102322.63;5052109;28;20033;-73
2021/07/15 07:10:46;;;;;;;11.02;3.10;;;30.60;99.90;;;29.18;58.60;102381.34;5038374;28;20044;-73
2021/07/15 07:13:12;;;;;;;4.75;2.97;;;30.80;99.90;;;29.28;59.57;102355.03;5035293;28;20033;-74
2021/07/15 07:15:38;;;;;;;5.80;2.80;;;30.90;99.90;;;29.23;56.60;102303.94;5019410;28;20044;-73
2021/07/15 07:18:04;;;;;;;5.20;3.17;;;30.60;99.90;;;29.07;58.19;102287.50;5036604;28;20040;-73
2021/07/15 07:20:30;;;;;;;7.13;3.25;;;30.50;99.90;;;28.86;57.92;102246.31;5020548;28;20038;-74
2021/07/15 07:22:56;;;;;;;8.88;3.13;;;30.50;99.90;;;28.91;59.54;102365.97;5035698;28;20028;-73
2021/07/15 07:25:21;;;;;;;7.47;3.20;;;30.20;99.90;;;28.62;58.74;102318.22;5037150;28;20044;-74
2021/07/15 07:27:48;;;;;;;3.33;2.78;;;30.60;99.90;;;28.93;60.79;102259.09;5052651;28;20048;-74
2021/07/15 07:30:17;;;;;;;5.72;2.90;;;30.90;99.90;;;30.40;54.41;106374.47;5037242;28;20021;-73
2021/07/15 07:32:46;;;;;;;5.03;2.58;;;31.40;99.90;;;31.15;52.46;103310.44;5020465;28;20090;-73
2021/07/15 07:35:13;;;;;;;11.50;3.10;;;31.80;99.90;;;31.41;51.84;102758.94;5021976;28;20021;-74
2021/07/15 07:37:39;;;;;;;6.75;3.42;;;32.40;99.90;;;30.33;51.87;102656.75;5032278;28;20021;-74
2021/07/15 07:40:09;;;;;;;7.75;2.95;;;31.80;99.90;;;30.97;56.45;102603.94;5024499;28;20482;-74
2021/07/15 07:42:35;;;;;;;5.32;2.67;;;32.30;99.90;;;31.89;49.05;102571.44;5039297;28;20096;-73
2021/07/15 07:45:01;;;;;;;3.55;2.72;;;32.30;99.90;;;30.70;53.62;102664.72;5038571;28;20025;-73
2021/07/15 07:47:27;;;;;;;7.10;2.88;;;32.20;99.90;;;31.87;47.98;102627.94;5022654;28;20026;-74
2021/07/15 07:49:53;;;;;;;5.60;2.78;;;31.60;99.70;;;31.94;46.31;102489.22;4998985;28;20051;-74
2021/07/15 07:52:19;;;;;;;8.52;2.90;;;31.50;99.90;;;31.78;49.70;102313.06;5041175;28;20053;-73
2021/07/15 07:54:45;;;;;;;6.68;3.08;;;31.80;99.80;;;31.67;48.53;102306.94;5025397;28;20029;-74
2021/07/15 07:57:11;;;;;;;5.13;2.67;;;32.20;99.90;;;31.90;48.60;102298.03;5022730;28;20374;-74
2021/07/15 07:59:38;;;;;;;7.03;2.90;;;31.40;99.90;;;30.04;52.99;102142.63;5040405;28;20032;-73
2021/07/15 08:02:05;;;;;;;4.47;2.60;;;31.50;99.90;;;30.80;49.79;102192.34;5013700;28;20441;-74
2021/07/15 08:04:31;;;;;;;3.97;2.95;;;31.40;99.90;;;30.33;53.66;102143.22;5040351;28;20113;-74
2021/07/15 08:06:57;;;;;;;3.40;2.88;;;31.50;99.90;;;30.74;52.55;102206.63;5006889;28;20400;-73
2021/07/15 08:09:24;;;;;;;5.55;3.63;;;31.40;99.90;;;30.68;53.09;102136.59;5041290;28;20033;-74
2021/07/15 08:11:54;;;;;;;4.80;2.92;;;31.60;99.90;;;31.11;50.63;102107.34;5039271;28;20144;-74
2021/07/15 08:14:22;;;;;;;4.22;2.83;;;32.10;99.90;;;31.50;49.54;102100.28;5022146;28;20034;-73
2021/07/15 08:16:49;;;;;;;3.97;2.97;;;32.10;99.40;;;31.52;49.93;102090.91;5039461;28;20044;-73
2021/07/15 08:19:16;;;;;;;3.63;2.95;;;32.00;99.90;;;31.22;53.43;102044.41;5038069;28;20025;-74
2021/07/15 08:21:42;;;;;;;8.93;2.80;;;32.20;99.90;;;30.73;53.81;101962.94;5046706;28;20030;-73
2021/07/15 08:24:08;;;;;;;4.25;2.92;;;31.90;99.90;;;30.17;52.91;101911.28;5032530;28;20036;-73
2021/07/15 08:26:34;;;;;;;6.60;3.03;;;31.40;99.90;;;29.77;52.59;101866.84;5040805;28;20036;-73
2021/07/15 08:29:00;;;;;;;4.68;3.08;;;31.40;99.90;;;30.19;54.02;101917.34;5021011;28;20028;-73
2021/07/15 08:31:26;;;;;;;5.13;3.17;;;31.30;99.90;;;29.50;55.79;101832.69;5024099;28;20033;-73
2021/07/15 08:33:52;;;;;;;3.13;2.83;;;31.00;99.90;;;29.82;57.73;101992.03;5007320;28;20109;-73
2021/07/15 08:36:19;;;;;;;5.50;2.80;;;31.50;99.90;;;30.25;35.11;103495.25;5039445;28;20029;-72
2021/07/15 08:38:47;;;;;;;6.57;2.90;;;30.90;99.90;;;27.19;61.86;103073.56;5038495;28;20183;-73
2021/07/15 08:41:13;;;;;;;5.22;2.72;;;30.00;99.90;;;28.52;62.89;102464.59;5038441;28;20033;-74
2021/07/15 08:43:39;;;;;;;6.85;3.22;;;30.40;99.90;;;29.43;58.12;102812.03;5040090;28;20121;-73
2021/07/15 08:46:07;;;;;;;5.47;3.22;;;30.40;99.90;;;28.69;57.08;102484.66;5021820;28;20253;-73
2021/07/15 08:48:35;;;;;;;8.38;3.50;;;30.20;99.90;;;28.97;54.44;103181.56;5038014;28;20030;-73
2021/07/15 08:51:02;;;;;;;4.60;3.58;;;30.50;99.90;;;29.73;51.46;102902.44;5038638;28;20033;-74
2021/07/15 08:53:31;;;;;;;5.72;3.17;;;30.70;99.90;;;30.28;50.93;102692.50;5037380;28;20021;-73
2021/07/15 08:58:44;;;;;;;4.17;3.70;;;31.50;99.90;;;29.19;53.98;102049.47;5036298;28;20113;-73
2021/07/15 09:01:24;;;;;;;5.15;3.63;;;30.70;99.90;;;28.04;60.70;102053.16;5015907;28;20466;-73
2021/07/15 09:04:04;;;;;;;4.50;3.20;;;29.70;99.90;;;27.70;60.31;102026.72;4996609;28;20039;-73
2021/07/15 09:06:56;;;;;;;4.03;3.30;;;29.70;99.90;;;28.04;61.22;101948.44;4987784;28;20459;-73
2021/07/15 09:09:48;;;;;;;7.35;3.28;;;29.80;99.90;;;29.15;56.35;102040.81;4984371;28;20434;-73
2021/07/15 09:12:34;;;;;;;9.95;3.22;;;30.40;99.90;;;30.07;51.77;102073.53;4981520;28;20041;-73
2021/07/15 09:15:25;;;;;;;5.22;3.13;;;30.80;99.90;;;30.11;52.32;102017.00;4993011;28;20065;-73
2021/07/15 09:18:19;;;;;;;6.45;3.22;;;31.10;99.90;;;30.59;50.64;102037.06;4979873;28;20037;-74
2021/07/15 09:21:44;;;;;;;5.65;2.78;;;31.50;99.90;;;31.06;47.11;102068.97;4976917;28;20075;-73
2021/07/15 09:25:10;;;;;;;4.38;3.13;;;31.40;99.90;;;30.67;47.79;101969.09;4987786;28;20067;-73
2021/07/15 09:28:24;;;;;;;6.00;3.22;;;30.80;99.90;;;29.93;53.33;101889.56;4974177;28;20030;-73
2021/07/15 09:32:16;;;;;;;3.90;3.13;;;30.70;99.90;;;29.95;54.16;101890.22;4979358;28;20048;-73
2021/07/15 09:36:04;;;;;;;12.68;3.15;;;30.50;99.90;;;29.25;50.88;101848.13;5004152;28;20044;-73
2021/07/15 09:39:56;;;;;;;4.32;2.90;;;30.20;99.90;;;29.24;51.42;101898.81;4974745;28;20037;-73
2021/07/15 09:42:52;;;;;;;8.25;3.25;;;30.50;99.90;;;28.98;51.59;101774.16;4987633;28;20124;-74
2021/07/15 09:46:07;;;;;;;4.25;3.35;;;30.20;99.90;;;28.33;54.60;101725.19;4992066;28;20113;-73
2021/07/15 09:49:38;;;;;;;5.30;3.40;;;29.80;99.90;;;28.55;58.98;101778.81;4991880;28;20524;-73
2021/07/15 09:52:50;;;;;;;5.63;3.50;;;29.70;99.90;;;28.66;53.71;101785.81;5010138;28;21621;-73
2021/07/15 09:55:58;;;;;;;6.80;3.90;;;29.80;99.90;;;28.66;51.77;101899.59;4983151;28;20045;-73
2021/07/15 09:59:20;;;;;;;7.57;3.50;;;29.80;99.90;;;29.55;54.48;101881.91;4979541;28;20122;-73
2021/07/15 10:03:00;;;;;;;6.32;3.13;;;30.10;99.90;;;28.98;56.96;101803.13;4999844;28;20120;-75
2021/07/15 10:07:00;;;;;;;4.53;3.25;;;30.10;99.90;;;28.72;55.23;101725.50;4982493;28;20505;-75
2021/07/15 10:10:40;;;;;;;6.20;3.33;;;29.30;99.90;;;28.16;57.96;101672.84;4981707;28;20041;-75
2021/07/15 10:13:58;;;;;;;7.32;3.33;;;28.70;99.90;;;27.14;61.63;101604.97;4977139;28;21046;-73
2021/07/15 10:17:52;;;;;;;11.98;3.83;;;28.10;99.90;;;26.63;61.63;101592.25;5003161;28;20038;-72
2021/07/15 10:21:21;;;;;;;8.98;3.40;;;27.60;99.90;;;26.36;64.65;101573.25;4985948;28;20647;-72
2021/07/15 10:25:30;;;;;;;4.25;3.33;;;27.40;99.90;;;26.19;66.07;101568.72;4988075;28;20125;-72
2021/07/15 10:29:06;;;;;;;6.13;3.35;;;27.10;99.90;;;26.01;67.87;101567.88;4998374;28;20049;-73
2021/07/15 10:32:50;;;;;;;4.05;3.40;;;26.90;99.90;;;25.88;68.86;101547.50;4984702;28;20149;-72
2021/07/15 10:36:22;;;;;;;8.55;3.42;;;26.80;99.90;;;25.76;68.09;101560.28;4993730;28;20501;-72
2021/07/15 10:39:50;;;;;;;7.07;3.53;;;26.70;99.90;;;25.82;68.61;101564.25;4987252;28;20045;-73
2021/07/15 10:43:33;;;;;;;5.90;3.50;;;26.60;99.90;;;25.69;68.24;101550.28;5008089;28;20059;-72